Time;durP1;ratioP1;P1;durP2;ratioP2;P2;SDS_P1;SDS_P2;PMS_P1;PMS_P2;Temp;Humidity;BMP_temperature;BMP_pressure;BME280_temperature;BME280_humidity;BME280_pressure;Samples;Min_cycle;Max_cycle;Signal;HPM_P1;HPM_P2
2021/12/20 00:03:03;;;;;;;18.60;2.95;;;;;;;1.83;100.00;102496.41;10264135;28;20041;-69
2021/12/20 00:08:00;;;;;;;15.60;2.25;;;;;;;1.82;100.00;102495.56;10261900;28;20072;-70
2021/12/20 00:12:57;;;;;;;17.80;4.15;;;;;;;1.73;100.00;102502.25;10262307;28;20076;-68
2021/12/20 00:17:53;;;;;;;12.85;2.83;;;;;;;1.74;100.00;102503.94;10249564;28;20550;-70
2021/12/20 00:22:50;;;;;;;15.52;2.65;;;;;;;1.70;100.00;102508.09;10258818;28;20127;-69
2021/12/20 00:27:47;;;;;;;16.20;3.97;;;;;;;1.70;100.00;102497.31;10249754;28;20177;-67
2021/12/20 00:32:43;;;;;;;9.20;2.15;;;;;;;1.62;100.00;102511.00;10263704;28;20048;-67
2021/12/20 00:42:58;;;;;;;16.90;2.97;;;;;;;1.72;100.00;102511.41;10254678;28;20106;-67
2021/12/20 00:47:54;;;;;;;10.43;2.05;;;;;;;1.59;100.00;102527.63;10263126;28;20096;-67
2021/12/20 00:52:52;;;;;;;12.50;2.40;;;;;;;1.47;100.00;102525.59;10262033;28;20042;-67
2021/12/20 00:57:50;;;;;;;10.65;2.22;;;;;;;1.52;100.00;102521.44;10264131;28;20045;-67
2021/12/20 01:02:47;;;;;;;8.77;2.58;;;;;;;1.50;100.00;102539.69;10272488;28;20036;-68
2021/12/20 01:07:44;;;;;;;7.85;2.08;;;;;;;1.41;100.00;102541.78;10268109;28;20076;-68
2021/12/20 01:12:44;;;;;;;14.55;2.63;;;;;;;1.31;100.00;102542.22;10264817;28;20560;-67
2021/12/20 01:17:46;;;;;;;14.07;3.03;;;;;;;1.38;100.00;102536.81;10267998;28;20080;-67
2021/12/20 01:22:48;;;;;;;9.50;1.75;;;;;;;1.22;100.00;102532.72;10262888;28;20045;-68
2021/12/20 01:27:48;;;;;;;11.60;3.58;;;;;;;1.28;100.00;102548.03;10253884;28;20037;-67
2021/12/20 01:32:59;;;;;;;13.15;3.58;;;;;;;1.30;100.00;102537.03;10268727;28;20419;-68
2021/12/20 01:37:59;;;;;;;9.23;2.20;;;;;;;1.19;100.00;102533.16;10270297;28;20066;-68
2021/12/20 01:42:57;;;;;;;9.55;2.35;;;;;;;1.14;100.00;102535.63;10264654;28;20077;-68
2021/12/20 01:48:06;;;;;;;9.57;1.92;;;;;;;1.12;100.00;102532.31;10271797;28;20045;-68
2021/12/20 01:53:25;;;;;;;8.30;1.90;;;;;;;1.07;100.00;102534.81;10267325;28;20048;-68
2021/12/20 01:58:30;;;;;;;12.27;2.20;;;;;;;0.99;100.00;102533.97;10265509;28;20037;-67
2021/12/20 02:08:32;;;;;;;12.43;2.10;;;;;;;1.10;100.00;102523.63;11020920;22;20474;-69
2021/12/20 02:13:30;;;;;;;13.20;1.80;;;;;;;0.99;100.00;102523.22;10220019;28;20073;-68
2021/12/20 02:18:28;;;;;;;9.18;1.80;;;;;;;1.00;100.00;102532.16;10191006;28;20045;-68
2021/12/20 02:23:26;;;;;;;12.95;2.53;;;;;;;1.05;100.00;102516.16;10174377;28;20442;-69
2021/12/20 02:28:23;;;;;;;7.95;2.05;;;;;;;0.97;100.00;102505.59;10190326;28;20069;-68
2021/12/20 02:38:37;;;;;;;13.68;2.72;;;;;;;0.81;100.00;102523.03;10170238;28;20045;-69
2021/12/20 02:43:39;;;;;;;12.40;1.98;;;;;;;0.88;100.00;102510.38;10172683;28;20457;-67
2021/12/20 02:48:35;;;;;;;11.88;2.05;;;;;;;0.85;100.00;102521.56;10169265;28;20384;-67
2021/12/20 02:53:32;;;;;;;7.38;1.90;;;;;;;0.83;100.00;102529.03;10173092;28;20720;-70
2021/12/20 02:58:28;;;;;;;12.20;2.05;;;;;;;0.72;100.00;102532.34;10170518;28;20050;-70
2021/12/20 03:03:26;;;;;;;8.45;1.70;;;;;;;0.71;100.00;102520.75;10185416;28;20042;-69
2021/12/20 03:08:23;;;;;;;11.02;1.80;;;;;;;0.79;100.00;102514.31;10176147;28;20050;-69
2021/12/20 03:13:22;;;;;;;12.65;2.33;;;;;;;0.70;100.00;102524.50;10183793;28;20084;-69
2021/12/20 03:18:19;;;;;;;9.27;1.88;;;;;;;0.72;100.00;102537.72;10172858;28;20495;-69
2021/12/20 03:23:15;;;;;;;9.00;2.15;;;;;;;0.71;100.00;102536.09;10189497;28;20486;-68
2021/12/20 03:28:12;;;;;;;10.27;2.10;;;;;;;0.60;100.00;102524.91;10173485;28;20100;-68
2021/12/20 03:33:08;;;;;;;12.05;2.92;;;;;;;0.63;100.00;102526.34;10170980;28;20046;-69
2021/12/20 03:38:05;;;;;;;13.05;2.13;;;;;;;0.56;100.00;102531.75;10166073;28;20504;-68
2021/12/20 03:43:01;;;;;;;11.00;1.85;;;;;;;0.60;100.00;102535.69;10181517;28;20107;-67
2021/12/20 03:47:58;;;;;;;11.70;1.73;;;;;;;0.48;100.00;102529.22;10166945;28;20041;-68
2021/12/20 03:52:55;;;;;;;6.70;1.83;;;;;;;0.45;100.00;102526.13;10173933;28;20038;-68
2021/12/20 03:57:51;;;;;;;9.38;1.77;;;;;;;0.58;100.00;102521.59;10179355;28;20062;-66
2021/12/20 04:02:54;;;;;;;8.25;2.15;;;;;;;0.43;100.00;102526.34;10181996;28;20495;-71
2021/12/20 04:07:50;;;;;;;14.38;3.20;;;;;;;0.41;100.00;102531.09;10183742;28;20042;-68
2021/12/20 04:12:47;;;;;;;12.85;2.25;;;;;;;0.38;100.00;102540.41;10190571;28;20058;-67
2021/12/20 04:17:43;;;;;;;10.63;2.20;;;;;;;0.40;100.00;102529.44;10175265;28;20042;-68
2021/12/20 04:22:40;;;;;;;12.80;2.28;;;;;;;0.51;100.00;102539.59;10182123;28;20070;-69
2021/12/20 04:27:37;;;;;;;14.13;2.08;;;;;;;0.39;100.00;102543.91;10183890;28;20161;-68
2021/12/20 04:32:33;;;;;;;13.65;1.90;;;;;;;0.37;100.00;102540.59;10177241;28;20136;-68
2021/12/20 04:37:30;;;;;;;7.50;1.58;;;;;;;0.45;100.00;102543.09;10179084;28;20049;-69
2021/12/20 04:42:26;;;;;;;8.15;1.77;;;;;;;0.43;100.00;102550.56;10182435;28;20061;-68
2021/12/20 04:47:23;;;;;;;7.10;1.50;;;;;;;0.42;100.00;102548.91;10183818;28;20511;-68
2021/12/20 04:52:19;;;;;;;12.50;1.70;;;;;;;0.40;100.00;102541.03;10178084;28;20073;-68
2021/12/20 04:57:17;;;;;;;11.23;2.00;;;;;;;0.37;100.00;102536.06;10183866;28;20073;-69
2021/12/20 05:02:14;;;;;;;8.70;1.50;;;;;;;0.41;100.00;102536.47;10180437;28;20049;-68
2021/12/20 05:07:10;;;;;;;19.77;2.38;;;;;;;0.37;100.00;102545.97;10180982;28;20073;-67
2021/12/20 05:12:11;;;;;;;10.82;2.00;;;;;;;0.41;100.00;102541.84;10187014;28;20046;-70
2021/12/20 05:17:10;;;;;;;8.38;1.83;;;;;;;0.35;100.00;102538.13;10180351;28;20508;-70
2021/12/20 05:22:08;;;;;;;6.53;1.85;;;;;;;0.36;100.00;102552.41;10179775;28;20050;-70
2021/12/20 05:27:05;;;;;;;8.27;1.40;;;;;;;0.34;100.00;102547.22;10172689;28;20077;-70
2021/12/20 05:32:04;;;;;;;8.73;1.60;;;;;;;0.33;100.00;102550.13;10177475;28;20053;-70
2021/12/20 05:37:01;;;;;;;12.00;2.30;;;;;;;0.38;100.00;102553.03;10179820;28;20050;-70
2021/12/20 05:41:58;;;;;;;9.20;1.90;;;;;;;0.26;100.00;102552.00;10186448;28;20128;-68
2021/12/20 05:46:54;;;;;;;11.52;1.92;;;;;;;0.32;100.00;102557.34;10191312;28;20092;-69
2021/12/20 05:51:51;;;;;;;19.48;3.08;;;;;;;0.38;100.00;102563.81;10185279;28;20047;-68
2021/12/20 05:56:47;;;;;;;7.50;1.55;;;;;;;0.36;100.00;102569.38;10176611;28;20456;-68
2021/12/20 06:01:44;;;;;;;8.48;1.63;;;;;;;0.32;100.00;102567.28;10175455;28;20084;-68
2021/12/20 06:06:40;;;;;;;13.85;2.17;;;;;;;0.35;100.00;102575.00;10166228;28;20128;-68
2021/12/20 06:11:37;;;;;;;10.52;1.95;;;;;;;0.34;100.00;102573.31;10166245;28;20061;-68
2021/12/20 06:16:34;;;;;;;13.70;2.80;;;;;;;0.31;100.00;102568.34;10163876;28;20115;-68
2021/12/20 06:21:30;;;;;;;11.57;1.95;;;;;;;0.19;100.00;102577.00;10170023;28;20054;-69
2021/12/20 06:26:26;;;;;;;11.73;2.03;;;;;;;0.19;100.00;102587.75;10184569;28;20050;-69
2021/12/20 06:31:23;;;;;;;12.68;2.08;;;;;;;0.04;100.00;102584.41;10174298;28;20050;-69
2021/12/20 06:36:21;;;;;;;6.72;1.55;;;;;;;0.12;100.00;102586.91;10179813;28;20080;-69
2021/12/20 06:41:18;;;;;;;10.30;2.22;;;;;;;0.08;100.00;102574.91;10176725;28;20050;-69
2021/12/20 06:46:16;;;;;;;8.98;2.08;;;;;;;0.01;100.00;102584.81;10167107;28;20085;-69
2021/12/20 06:51:12;;;;;;;13.95;1.70;;;;;;;0.02;100.00;102586.44;10157731;28;20078;-69
2021/12/20 06:56:12;;;;;;;5.65;1.42;;;;;;;0.07;100.00;102584.00;10160752;28;20046;-68
2021/12/20 07:01:08;;;;;;;8.52;1.88;;;;;;;-0.01;100.00;102586.88;10182157;28;20070;-68
2021/12/20 07:06:04;;;;;;;15.80;2.05;;;;;;;-0.06;100.00;102594.72;10175902;28;20503;-69
2021/12/20 07:11:01;;;;;;;15.40;2.45;;;;;;;-0.05;100.00;102590.97;10169427;28;20046;-69
2021/12/20 07:15:57;;;;;;;10.68;2.42;;;;;;;-0.03;100.00;102599.69;10168037;28;20125;-70
2021/12/20 07:20:54;;;;;;;13.35;2.40;;;;;;;0.05;100.00;102607.59;10174928;28;20141;-70
2021/12/20 07:25:51;;;;;;;7.00;1.35;;;;;;;0.05;100.00;102615.66;10177176;28;20042;-69
2021/12/20 07:30:49;;;;;;;8.70;1.70;;;;;;;0.03;100.00;102617.72;10153273;28;20038;-69
2021/12/20 07:35:49;;;;;;;15.05;2.35;;;;;;;-0.01;100.00;102621.81;10167328;28;20056;-69
2021/12/20 07:40:48;;;;;;;6.07;1.60;;;;;;;0.04;100.00;102626.59;10160310;28;20571;-70
2021/12/20 07:45:49;;;;;;;9.63;1.65;;;;;;;0.03;100.00;102631.16;10166561;28;20062;-69
2021/12/20 07:50:46;;;;;;;10.15;1.92;;;;;;;0.03;100.00;102631.16;10161241;28;21333;-69
2021/12/20 07:55:43;;;;;;;9.65;2.17;;;;;;;-0.01;100.00;102635.28;10180892;28;20054;-69
2021/12/20 08:00:40;;;;;;;9.23;1.95;;;;;;;0.06;100.00;102638.00;10178305;28;20046;-70
2021/12/20 08:05:36;;;;;;;7.72;1.70;;;;;;;0.00;100.00;102642.34;10182191;28;20052;-69
2021/12/20 08:10:33;;;;;;;9.27;2.17;;;;;;;-0.05;100.00;102644.75;10185231;28;20065;-69
2021/12/20 08:15:33;;;;;;;6.57;1.73;;;;;;;0.05;100.00;102639.88;10178947;28;20042;-69
2021/12/20 08:20:29;;;;;;;6.38;1.67;;;;;;;0.02;100.00;102639.41;10186580;28;20432;-69
2021/12/20 08:25:26;;;;;;;8.35;1.80;;;;;;;0.15;100.00;102643.00;10194682;28;20069;-69
2021/12/20 08:30:23;;;;;;;9.20;2.38;;;;;;;0.24;100.00;102642.84;10194207;28;20125;-69
2021/12/20 08:35:20;;;;;;;7.28;1.45;;;;;;;0.24;100.00;102640.16;10176985;28;20056;-69
2021/12/20 08:40:17;;;;;;;10.85;2.42;;;;;;;0.35;100.00;102636.88;10183527;28;20050;-69
2021/12/20 08:45:16;;;;;;;8.85;2.28;;;;;;;0.37;100.00;102653.63;10196193;28;20099;-69
2021/12/20 08:50:20;;;;;;;10.68;2.50;;;;;;;0.40;100.00;102658.63;10182604;28;20080;-69
2021/12/20 08:55:18;;;;;;;9.90;2.40;;;;;;;0.34;100.00;102659.41;10181302;28;20054;-69
2021/12/20 09:00:19;;;;;;;9.85;2.13;;;;;;;0.48;100.00;102661.13;10181744;28;20076;-69
2021/12/20 09:05:16;;;;;;;13.65;2.95;;;;;;;0.60;100.00;102659.50;10180646;28;20649;-69
2021/12/20 09:10:14;;;;;;;8.07;2.15;;;;;;;0.71;100.00;102668.00;10187875;28;20084;-69
2021/12/20 09:15:17;;;;;;;9.30;2.30;;;;;;;0.80;100.00;102674.88;10196693;28;20089;-69
2021/12/20 09:20:15;;;;;;;12.15;2.40;;;;;;;0.97;100.00;102686.91;10181951;28;20046;-69
2021/12/20 09:25:12;;;;;;;9.50;2.03;;;;;;;1.05;100.00;102681.31;10188732;28;20042;-69
2021/12/20 09:30:09;;;;;;;9.15;2.13;;;;;;;1.20;100.00;102672.22;10183518;28;20050;-69
2021/12/20 09:35:05;;;;;;;9.10;1.77;;;;;;;1.41;100.00;102676.56;10177490;28;20058;-69
2021/12/20 09:40:04;;;;;;;8.57;1.95;;;;;;;1.77;100.00;102675.28;10186424;28;20096;-69
2021/12/20 09:45:02;;;;;;;10.52;2.22;;;;;;;2.24;100.00;102682.19;10179618;28;20069;-70
2021/12/20 09:50:01;;;;;;;6.82;2.30;;;;;;;2.60;100.00;102669.13;10252262;22;20133;-71
2021/12/20 09:54:58;;;;;;;5.10;1.40;;;;;;;2.82;100.00;102681.25;10106098;28;20058;-71
2021/12/20 09:59:54;;;;;;;7.07;1.77;;;;;;;2.80;100.00;102677.13;10144777;28;20819;-71
2021/12/20 10:04:54;;;;;;;6.43;1.80;;;;;;;2.94;100.00;102682.22;10150473;28;20050;-71
2021/12/20 10:09:51;;;;;;;5.53;1.90;;;;;;;3.00;100.00;102685.94;10150930;28;20076;-71
2021/12/20 10:14:52;;;;;;;7.78;2.00;;;;;;;3.10;100.00;102691.66;10146771;28;20560;-71
2021/12/20 10:19:49;;;;;;;12.93;1.98;;;;;;;3.30;100.00;102694.22;10147330;28;20092;-71
2021/12/20 10:24:45;;;;;;;12.98;1.88;;;;;;;3.50;100.00;102699.44;10148035;28;20050;-72
2021/12/20 10:29:42;;;;;;;9.15;1.85;;;;;;;3.51;100.00;102709.22;10143740;28;20054;-72
2021/12/20 10:34:38;;;;;;;10.52;1.58;;;;;;;3.81;100.00;102703.13;10148546;28;20499;-72
2021/12/20 10:39:37;;;;;;;4.60;1.30;;;;;;;3.72;100.00;102710.72;10147096;28;20042;-72
2021/12/20 10:44:34;;;;;;;9.57;1.60;;;;;;;3.99;100.00;102705.84;10145548;28;20050;-72
2021/12/20 10:49:30;;;;;;;10.07;2.08;;;;;;;4.08;100.00;102713.66;10148570;28;20066;-72
2021/12/20 10:54:31;;;;;;;6.93;1.98;;;;;;;4.18;100.00;102708.56;10149983;28;20161;-72
2021/12/20 10:59:30;;;;;;;7.90;1.55;;;;;;;4.15;100.00;102717.13;10144971;28;20539;-72
2021/12/20 11:04:31;;;;;;;7.53;1.92;;;;;;;4.09;100.00;102723.47;10147206;28;20046;-72
2021/12/20 11:09:35;;;;;;;9.93;1.95;;;;;;;4.11;100.00;102718.66;10148649;28;20042;-72
2021/12/20 11:14:34;;;;;;;8.32;1.50;;;;;;;4.44;100.00;102707.41;10150250;28;20113;-73
2021/12/20 11:19:40;;;;;;;4.97;1.70;;;;;;;4.33;100.00;102706.28;10144483;28;20042;-72
2021/12/20 11:24:43;;;;;;;7.75;2.28;;;;;;;4.40;100.00;102696.19;10148707;28;20100;-72
2021/12/20 11:29:43;;;;;;;11.52;2.65;;;;;;;4.53;100.00;102705.22;10144330;28;20129;-72
2021/12/20 11:34:42;;;;;;;8.27;2.03;;;;;;;4.58;100.00;102713.50;10144005;28;20129;-72
2021/12/20 11:39:39;;;;;;;8.52;1.52;;;;;;;4.67;100.00;102701.28;10144374;28;20046;-71
2021/12/20 11:44:37;;;;;;;8.20;1.80;;;;;;;4.60;100.00;102700.53;10145623;28;20050;-72
2021/12/20 11:49:35;;;;;;;6.47;1.42;;;;;;;4.71;100.00;102690.78;10143773;28;20142;-72
2021/12/20 11:54:42;;;;;;;8.15;2.03;;;;;;;4.84;100.00;102696.03;10142149;28;20042;-71
2021/12/20 11:59:57;;;;;;;5.63;1.63;;;;;;;4.90;100.00;102689.69;10144964;28;20077;-71
2021/12/20 12:05:05;;;;;;;12.25;2.40;;;;;;;5.18;100.00;102689.06;10141969;28;20137;-72
2021/12/20 12:10:11;;;;;;;9.45;1.52;;;;;;;5.53;100.00;102690.16;10159522;28;20138;-73
2021/12/20 12:15:16;;;;;;;7.07;1.77;;;;;;;5.64;100.00;102679.31;10144533;28;20054;-72
2021/12/20 12:20:13;;;;;;;9.75;2.00;;;;;;;6.14;98.38;102677.13;10143532;28;20097;-70
2021/12/20 12:25:13;;;;;;;7.13;1.50;;;;;;;6.36;96.13;102683.56;10150391;28;20046;-70
2021/12/20 12:30:15;;;;;;;10.85;2.08;;;;;;;6.73;93.58;102685.91;10141915;28;20050;-70
2021/12/20 12:35:39;;;;;;;8.73;1.73;;;;;;;7.02;88.45;102683.16;10141426;28;20053;-71
2021/12/20 12:40:37;;;;;;;7.13;1.50;;;;;;;6.69;87.72;102690.19;10139180;28;20557;-72
2021/12/20 12:45:49;;;;;;;7.68;1.95;;;;;;;7.11;90.85;102681.69;10145248;28;20042;-72
2021/12/20 12:50:46;;;;;;;4.70;1.60;;;;;;;7.08;84.44;102680.28;10150663;28;20104;-73
2021/12/20 12:55:43;;;;;;;9.40;1.98;;;;;;;6.90;86.45;102692.19;10155201;28;20485;-73
2021/12/20 13:00:39;;;;;;;8.77;1.55;;;;;;;6.75;86.70;102691.91;10154692;28;20042;-72
2021/12/20 13:05:37;;;;;;;13.23;2.40;;;;;;;6.30;87.86;102689.97;10153579;28;20147;-72
2021/12/20 13:10:41;;;;;;;8.68;1.73;;;;;;;6.21;90.07;102692.22;10151196;28;20112;-72
2021/12/20 13:15:49;;;;;;;5.63;1.58;;;;;;;6.09;91.13;102692.25;10158780;28;20472;-72
2021/12/20 13:20:59;;;;;;;7.38;1.80;;;;;;;5.87;91.81;102702.03;10151777;28;20046;-72
2021/12/20 13:26:10;;;;;;;6.57;1.80;;;;;;;5.77;93.96;102709.97;10156097;28;20073;-72
2021/12/20 13:31:14;;;;;;;10.90;3.03;;;;;;;5.67;94.31;102700.53;10146925;28;20113;-72
2021/12/20 13:36:16;;;;;;;10.45;2.17;;;;;;;5.23;98.37;102713.59;10155156;28;20050;-72
2021/12/20 13:41:22;;;;;;;13.88;3.83;;;;;;;4.95;100.00;102721.53;10151593;28;20089;-72
2021/12/20 13:46:41;;;;;;;13.70;2.28;;;;;;;4.90;100.00;102721.38;10155328;28;20455;-72
2021/12/20 13:51:39;;;;;;;7.13;1.70;;;;;;;4.79;100.00;102721.13;10170907;28;20046;-72
2021/12/20 13:56:36;;;;;;;5.57;1.35;;;;;;;4.60;100.00;102711.38;10152933;28;20077;-72
2021/12/20 14:01:37;;;;;;;6.30;1.42;;;;;;;4.51;100.00;102708.16;10155472;28;20047;-72
2021/12/20 14:06:37;;;;;;;16.45;2.17;;;;;;;4.39;100.00;102716.22;10146715;28;20100;-72
2021/12/20 14:11:34;;;;;;;13.85;3.13;;;;;;;4.34;100.00;102718.78;10158076;28;20125;-72
2021/12/20 14:17:00;;;;;;;9.90;2.85;;;;;;;4.12;100.00;102725.72;10137505;28;20042;-72
2021/12/20 14:22:00;;;;;;;16.67;4.40;;;;;;;4.02;100.00;102714.59;10147627;28;20046;-72
2021/12/20 14:27:03;;;;;;;6.13;1.73;;;;;;;3.98;100.00;102720.44;10153274;28;20079;-72
2021/12/20 14:32:00;;;;;;;;;;;;;;;3.90;100.00;102723.44;10154696;28;20121;-73
2021/12/20 14:37:09;;;;;;;8.38;2.17;;;;;;;3.85;100.00;102720.56;10146424;28;20406;-72
2021/12/20 14:42:06;;;;;;;8.63;2.03;;;;;;;3.85;100.00;102715.16;10146195;28;20133;-72
2021/12/20 14:47:18;;;;;;;11.13;2.05;;;;;;;3.68;100.00;102724.91;10145300;28;20062;-72
2021/12/20 14:52:15;;;;;;;5.50;1.92;;;;;;;3.68;100.00;102724.91;10144195;28;20094;-72
2021/12/20 14:57:16;;;;;;;10.82;2.70;;;;;;;3.69;100.00;102726.53;10138030;28;20054;-73
2021/12/20 15:02:17;;;;;;;10.70;2.70;;;;;;;3.64;100.00;102731.78;10143629;28;20077;-71
2021/12/20 15:07:13;;;;;;;10.82;2.60;;;;;;;3.42;100.00;102721.38;10141577;28;20050;-71
2021/12/20 15:12:10;;;;;;;17.15;5.05;;;;;;;3.28;100.00;102723.34;10146960;28;20081;-72
2021/12/20 15:17:07;;;;;;;12.38;3.50;;;;;;;3.08;100.00;102715.38;10150409;28;20050;-73
2021/12/20 15:22:04;;;;;;;13.65;4.57;;;;;;;3.11;100.00;102714.97;10150229;28;20052;-74
2021/12/20 15:27:04;;;;;;;9.45;3.00;;;;;;;3.08;100.00;102715.38;10149206;28;20472;-74
2021/12/20 15:32:01;;;;;;;18.13;5.50;;;;;;;3.01;100.00;102719.19;10149447;28;20050;-74
2021/12/20 15:36:58;;;;;;;15.35;3.83;;;;;;;2.91;100.00;102722.38;10150727;28;20138;-74
2021/12/20 15:42:00;;;;;;;14.88;4.47;;;;;;;2.82;100.00;102726.38;10145971;28;20104;-73
2021/12/20 15:46:57;;;;;;;14.10;3.95;;;;;;;2.82;100.00;102716.38;10146494;28;20491;-73
2021/12/20 15:51:54;;;;;;;11.00;3.30;;;;;;;2.67;100.00;102724.78;10142780;28;20061;-74
2021/12/20 15:56:51;;;;;;;13.38;2.70;;;;;;;2.71;100.00;102715.19;10145298;28;20122;-73
2021/12/20 16:01:51;;;;;;;11.88;3.60;;;;;;;2.71;100.00;102715.19;10139744;28;20042;-74
2021/12/20 16:06:48;;;;;;;12.18;5.50;;;;;;;2.65;100.00;102716.06;10146731;28;20435;-75
2021/12/20 16:11:44;;;;;;;16.05;3.38;;;;;;;2.53;100.00;102720.50;10141429;28;20081;-75
2021/12/20 16:16:41;;;;;;;12.98;3.15;;;;;;;2.58;100.00;102712.56;10141720;28;20046;-73
2021/12/20 16:21:42;;;;;;;16.55;5.65;;;;;;;2.44;100.00;102708.28;10145618;28;20093;-73
2021/12/20 16:26:38;;;;;;;12.95;4.93;;;;;;;2.34;100.00;102705.19;10156577;28;20079;-73
2021/12/20 16:31:35;;;;;;;12.60;3.97;;;;;;;2.39;100.00;102711.63;10149320;28;20109;-73
2021/12/20 16:36:31;;;;;;;13.60;4.97;;;;;;;2.31;100.00;102715.38;10151217;28;20092;-73
2021/12/20 16:41:28;;;;;;;16.77;4.82;;;;;;;2.27;100.00;102708.72;10153172;28;20046;-73
2021/12/20 16:46:25;;;;;;;10.73;4.35;;;;;;;2.20;100.00;102707.09;10149020;28;20512;-73
2021/12/20 16:51:26;;;;;;;11.05;4.53;;;;;;;2.22;100.00;102711.25;10147925;28;20050;-73
2021/12/20 16:56:34;;;;;;;12.45;4.90;;;;;;;2.16;100.00;102701.31;10149160;28;20073;-72
2021/12/20 17:01:31;;;;;;;11.13;3.33;;;;;;;2.15;100.00;102701.53;10155226;28;20511;-72
2021/12/20 17:06:28;;;;;;;11.02;3.28;;;;;;;2.01;100.00;102708.84;10154485;28;20046;-72
2021/12/20 17:11:24;;;;;;;10.55;2.88;;;;;;;1.95;100.00;102720.47;10160376;28;20077;-72
2021/12/20 17:16:22;;;;;;;11.07;3.47;;;;;;;1.97;100.00;102723.78;10157587;28;20038;-72
2021/12/20 17:21:19;;;;;;;11.88;3.85;;;;;;;1.88;100.00;102715.94;10159483;28;20165;-73
2021/12/20 17:26:17;;;;;;;9.30;3.40;;;;;;;1.79;100.00;102706.41;10157242;28;20042;-73
2021/12/20 17:31:14;;;;;;;13.50;3.42;;;;;;;1.83;100.00;102707.63;10158694;28;20046;-72
2021/12/20 17:36:11;;;;;;;16.92;3.65;;;;;;;1.81;100.00;102709.72;10156327;28;20086;-73
2021/12/20 17:41:07;;;;;;;11.38;4.32;;;;;;;1.74;100.00;102708.91;10154250;28;20109;-72
2021/12/20 17:46:04;;;;;;;11.88;3.45;;;;;;;1.74;100.00;102708.91;10154711;28;20105;-72
2021/12/20 17:51:00;;;;;;;11.70;3.80;;;;;;;1.65;100.00;102712.84;10153296;28;20135;-72
2021/12/20 17:55:57;;;;;;;13.50;3.95;;;;;;;1.66;100.00;102711.78;10154615;28;20054;-72
2021/12/20 18:00:53;;;;;;;10.95;3.47;;;;;;;1.61;100.00;102703.50;10153996;28;20101;-72
2021/12/20 18:05:50;;;;;;;10.93;3.40;;;;;;;1.51;100.00;102711.19;10154316;28;20526;-72
2021/12/20 18:10:47;;;;;;;12.90;3.97;;;;;;;1.42;100.00;102711.41;10145294;28;20485;-72
2021/12/20 18:15:45;;;;;;;14.68;4.03;;;;;;;1.47;100.00;102708.91;10153072;28;20133;-72
2021/12/20 18:20:43;;;;;;;15.07;4.35;;;;;;;1.50;100.00;102713.06;10149401;28;20104;-73
2021/12/20 18:25:39;;;;;;;12.73;4.28;;;;;;;1.43;100.00;102715.75;10147873;28;20042;-74
2021/12/20 18:30:37;;;;;;;9.98;3.35;;;;;;;1.40;100.00;102726.94;10153372;28;20064;-72
2021/12/20 18:35:34;;;;;;;12.80;3.78;;;;;;;1.37;100.00;102721.97;10153908;28;20125;-72
2021/12/20 18:40:30;;;;;;;13.10;4.05;;;;;;;1.25;100.00;102716.38;10153908;28;20046;-72
2021/12/20 18:45:27;;;;;;;13.13;3.92;;;;;;;1.28;100.00;102725.91;10152618;28;20107;-72
2021/12/20 18:50:23;;;;;;;10.38;3.65;;;;;;;1.21;100.00;102725.09;10153946;28;20046;-72
2021/12/20 18:55:20;;;;;;;12.63;3.90;;;;;;;1.09;100.00;102721.31;10149907;28;20050;-72
2021/12/20 19:00:17;;;;;;;16.20;4.68;;;;;;;1.17;100.00;102735.44;10148026;28;20089;-71
2021/12/20 19:05:13;;;;;;;13.57;3.60;;;;;;;1.06;100.00;102738.72;10153411;28;20054;-72
2021/12/20 19:10:15;;;;;;;11.68;4.75;;;;;;;0.98;100.00;102736.25;10156378;28;20104;-72
2021/12/20 19:15:11;;;;;;;11.40;4.20;;;;;;;0.86;100.00;102743.22;10153585;28;20054;-72
2021/12/20 19:20:09;;;;;;;10.75;3.90;;;;;;;0.80;100.00;102736.81;10151891;28;20084;-72
2021/12/20 19:25:28;;;;;;;15.70;4.95;;;;;;;0.75;100.00;102742.81;10145452;28;20152;-72
2021/12/20 19:30:26;;;;;;;12.55;5.32;;;;;;;0.67;100.00;102739.44;10149601;28;20046;-72
2021/12/20 19:35:23;;;;;;;12.07;4.40;;;;;;;0.52;100.00;102743.13;10141505;28;20104;-72
2021/12/20 19:40:19;;;;;;;10.60;5.18;;;;;;;0.44;100.00;102740.59;10150051;28;20057;-72
2021/12/20 19:45:16;;;;;;;9.63;3.80;;;;;;;0.41;100.00;102741.00;10151091;28;20116;-72
2021/12/20 19:50:13;;;;;;;10.45;4.03;;;;;;;0.31;100.00;102744.06;10144964;28;20310;-72
2021/12/20 19:55:09;;;;;;;11.23;5.00;;;;;;;0.27;100.00;102745.50;10148057;28;20046;-72
2021/12/20 20:00:07;;;;;;;14.18;5.00;;;;;;;0.27;100.00;102750.06;10150009;28;20096;-72
2021/12/20 20:05:04;;;;;;;12.35;5.07;;;;;;;0.24;100.00;102755.84;10140789;28;20130;-73
2021/12/20 20:10:01;;;;;;;12.65;5.10;;;;;;;0.17;100.00;102753.09;10149471;28;20078;-73
2021/12/20 20:14:57;;;;;;;13.60;4.53;;;;;;;0.19;100.00;102754.56;10151372;28;20545;-73
2021/12/20 20:19:54;;;;;;;13.88;4.70;;;;;;;0.29;100.00;102753.38;10143757;28;20086;-73
2021/12/20 20:24:51;;;;;;;14.50;4.80;;;;;;;0.23;100.00;102759.53;10144773;28;20074;-72
2021/12/20 20:29:48;;;;;;;15.35;5.72;;;;;;;0.31;100.00;102751.31;10144605;28;20089;-73
2021/12/20 20:34:45;;;;;;;14.18;5.00;;;;;;;0.15;100.00;102747.91;10147926;28;20130;-72
2021/12/20 20:39:41;;;;;;;12.90;5.03;;;;;;;0.17;100.00;102755.78;10135893;28;20552;-74
2021/12/20 20:44:39;;;;;;;11.85;4.90;;;;;;;0.10;100.00;102750.38;10140962;28;20046;-71
2021/12/20 20:49:37;;;;;;;14.70;5.10;;;;;;;0.19;100.00;102748.34;10142991;28;20046;-70
2021/12/20 20:54:34;;;;;;;14.77;5.50;;;;;;;0.25;100.00;102742.16;10140963;28;20038;-70
2021/12/20 20:59:31;;;;;;;14.20;5.75;;;;;;;0.17;100.00;102750.41;10144837;28;20542;-71
2021/12/20 21:04:28;;;;;;;12.70;5.03;;;;;;;0.26;100.00;102748.41;10146955;28;20129;-71
2021/12/20 21:09:25;;;;;;;17.50;5.60;;;;;;;0.27;100.00;102760.81;10160154;28;20042;-70
2021/12/20 21:14:21;;;;;;;13.52;5.75;;;;;;;0.07;100.00;102761.53;10154314;28;20073;-70
2021/12/20 21:19:18;;;;;;;15.35;5.53;;;;;;;0.08;100.00;102752.44;10153910;28;20502;-70
2021/12/20 21:24:16;;;;;;;18.20;6.07;;;;;;;0.10;100.00;102766.50;10152857;28;20046;-70
2021/12/20 21:29:14;;;;;;;19.38;5.93;;;;;;;0.15;100.00;102752.47;10154835;28;20141;-71
2021/12/20 21:34:14;;;;;;;11.93;5.70;;;;;;;-0.08;100.00;102752.75;10151385;28;20081;-70
2021/12/20 21:39:12;;;;;;;12.10;5.97;;;;;;;-0.14;100.00;102746.31;10149917;28;20050;-70
2021/12/20 21:44:09;;;;;;;14.10;6.00;;;;;;;-0.22;100.00;102736.50;10154495;28;20042;-70
2021/12/20 21:49:06;;;;;;;14.82;6.68;;;;;;;-0.27;100.00;102738.97;10153981;28;20116;-70
2021/12/20 21:54:03;;;;;;;14.82;5.45;;;;;;;-0.30;100.00;102739.34;10154388;28;20085;-71
2021/12/20 21:59:01;;;;;;;13.77;5.55;;;;;;;-0.34;100.00;102727.31;10150418;28;20042;-71
2021/12/20 22:04:00;;;;;;;16.27;5.82;;;;;;;-0.40;100.00;102738.84;10153232;28;20046;-71
2021/12/20 22:08:57;;;;;;;10.45;5.38;;;;;;;-0.44;100.00;102742.97;10158215;28;20604;-70
2021/12/20 22:14:02;;;;;;;14.95;5.32;;;;;;;-0.43;100.00;102744.63;10154184;28;20752;-70
2021/12/20 22:19:00;;;;;;;12.80;5.57;;;;;;;-0.48;100.00;102736.31;10155543;28;20394;-70
2021/12/20 22:23:56;;;;;;;16.65;5.68;;;;;;;-0.46;100.00;102728.91;10150545;28;20038;-70
2021/12/20 22:28:53;;;;;;;11.30;4.97;;;;;;;-0.38;100.00;102728.72;10156164;28;20085;-70
2021/12/20 22:33:49;;;;;;;23.55;6.18;;;;;;;-0.26;100.00;102731.72;10155460;28;20531;-70
2021/12/20 22:38:46;;;;;;;11.18;4.60;;;;;;;-0.34;100.00;102738.06;10150196;28;20108;-70
2021/12/20 22:43:43;;;;;;;13.68;5.03;;;;;;;-0.23;100.00;102721.41;10146922;28;20049;-70
2021/12/20 22:48:39;;;;;;;13.85;5.68;;;;;;;-0.31;100.00;102720.72;10146652;28;20046;-69
2021/12/20 22:53:36;;;;;;;11.52;6.07;;;;;;;-0.37;100.00;102722.34;10146384;28;20046;-70
2021/12/20 22:58:32;;;;;;;15.57;6.25;;;;;;;-0.44;100.00;102726.84;10133713;28;20535;-70